sensor_id;sensor_type;location;lat;lon;timestamp;P1;durP1;ratioP1;P2;durP2;ratioP2
7693;SDS011;3889;48.162;11.510;2022-07-22T00:01:27;14.85;;;13.35;;
7693;SDS011;3889;48.162;11.510;2022-07-22T00:03:56;15.13;;;13.63;;
7693;SDS011;3889;48.162;11.510;2022-07-22T00:06:25;13.90;;;12.55;;
7693;SDS011;3889;48.162;11.510;2022-07-22T00:08:54;15.00;;;13.60;;
7693;SDS011;3889;48.162;11.510;2022-07-22T00:11:23;15.60;;;14.00;;
7693;SDS011;3889;48.162;11.510;2022-07-22T00:13:51;14.18;;;12.77;;
7693;SDS011;3889;48.162;11.510;2022-07-22T00:16:18;14.57;;;13.18;;
7693;SDS011;3889;48.162;11.510;2022-07-22T00:18:47;15.45;;;13.90;;
7693;SDS011;3889;48.162;11.510;2022-07-22T00:21:14;14.65;;;13.05;;
7693;SDS011;3889;48.162;11.510;2022-07-22T00:23:42;14.65;;;13.32;;
7693;SDS011;3889;48.162;11.510;2022-07-22T00:26:12;13.32;;;12.05;;
7693;SDS011;3889;48.162;11.510;2022-07-22T00:28:40;14.60;;;13.20;;
7693;SDS011;3889;48.162;11.510;2022-07-22T00:31:08;14.02;;;12.63;;
7693;SDS011;3889;48.162;11.510;2022-07-22T00:33:36;13.95;;;12.65;;
7693;SDS011;3889;48.162;11.510;2022-07-22T00:36:04;14.05;;;12.65;;
7693;SDS011;3889;48.162;11.510;2022-07-22T00:38:33;14.65;;;13.25;;
7693;SDS011;3889;48.162;11.510;2022-07-22T00:41:01;14.57;;;13.18;;
7693;SDS011;3889;48.162;11.510;2022-07-22T00:46:25;14.25;;;12.80;;
7693;SDS011;3889;48.162;11.510;2022-07-22T00:48:54;14.65;;;13.15;;
7693;SDS011;3889;48.162;11.510;2022-07-22T00:51:23;14.43;;;13.02;;
7693;SDS011;3889;48.162;11.510;2022-07-22T00:53:52;13.95;;;12.65;;
7693;SDS011;3889;48.162;11.510;2022-07-22T00:56:22;15.07;;;13.52;;
7693;SDS011;3889;48.162;11.510;2022-07-22T00:58:52;14.50;;;13.13;;
7693;SDS011;3889;48.162;11.510;2022-07-22T01:01:23;13.90;;;12.60;;
7693;SDS011;3889;48.162;11.510;2022-07-22T01:03:52;14.82;;;13.32;;
7693;SDS011;3889;48.162;11.510;2022-07-22T01:06:26;13.52;;;12.23;;
7693;SDS011;3889;48.162;11.510;2022-07-22T01:08:55;13.80;;;12.50;;
7693;SDS011;3889;48.162;11.510;2022-07-22T01:11:24;14.40;;;13.07;;
7693;SDS011;3889;48.162;11.510;2022-07-22T01:13:54;15.07;;;13.48;;
7693;SDS011;3889;48.162;11.510;2022-07-22T01:16:24;14.38;;;12.93;;
7693;SDS011;3889;48.162;11.510;2022-07-22T01:18:52;13.80;;;12.43;;
7693;SDS011;3889;48.162;11.510;2022-07-22T01:21:22;14.00;;;12.70;;
7693;SDS011;3889;48.162;11.510;2022-07-22T01:23:50;14.48;;;13.05;;
7693;SDS011;3889;48.162;11.510;2022-07-22T01:26:18;14.45;;;13.15;;
7693;SDS011;3889;48.162;11.510;2022-07-22T01:28:46;13.10;;;11.88;;
7693;SDS011;3889;48.162;11.510;2022-07-22T01:31:14;14.20;;;12.80;;
7693;SDS011;3889;48.162;11.510;2022-07-22T01:33:42;14.18;;;12.77;;
7693;SDS011;3889;48.162;11.510;2022-07-22T01:36:09;14.68;;;13.27;;
7693;SDS011;3889;48.162;11.510;2022-07-22T01:38:40;14.00;;;12.60;;
7693;SDS011;3889;48.162;11.510;2022-07-22T01:41:08;13.82;;;12.43;;
7693;SDS011;3889;48.162;11.510;2022-07-22T01:43:36;13.48;;;12.15;;
7693;SDS011;3889;48.162;11.510;2022-07-22T01:46:04;13.88;;;12.48;;
7693;SDS011;3889;48.162;11.510;2022-07-22T01:48:32;13.30;;;12.00;;
7693;SDS011;3889;48.162;11.510;2022-07-22T01:51:00;13.38;;;12.07;;
7693;SDS011;3889;48.162;11.510;2022-07-22T01:53:28;14.50;;;13.20;;
7693;SDS011;3889;48.162;11.510;2022-07-22T01:55:57;14.18;;;12.77;;
7693;SDS011;3889;48.162;11.510;2022-07-22T01:58:25;14.00;;;12.70;;
7693;SDS011;3889;48.162;11.510;2022-07-22T02:00:53;14.63;;;13.13;;
7693;SDS011;3889;48.162;11.510;2022-07-22T02:03:21;14.20;;;12.80;;
7693;SDS011;3889;48.162;11.510;2022-07-22T02:05:49;14.15;;;12.75;;
7693;SDS011;3889;48.162;11.510;2022-07-22T02:08:17;13.27;;;12.05;;
7693;SDS011;3889;48.162;11.510;2022-07-22T02:10:45;13.52;;;12.23;;
7693;SDS011;3889;48.162;11.510;2022-07-22T02:13:14;13.73;;;12.43;;
7693;SDS011;3889;48.162;11.510;2022-07-22T02:15:42;13.40;;;12.10;;
7693;SDS011;3889;48.162;11.510;2022-07-22T02:18:11;13.97;;;12.67;;
7693;SDS011;3889;48.162;11.510;2022-07-22T02:20:40;14.25;;;12.95;;
7693;SDS011;3889;48.162;11.510;2022-07-22T02:23:08;13.90;;;12.57;;
7693;SDS011;3889;48.162;11.510;2022-07-22T02:25:38;14.48;;;13.07;;
7693;SDS011;3889;48.162;11.510;2022-07-22T02:28:07;14.50;;;13.02;;
7693;SDS011;3889;48.162;11.510;2022-07-22T02:30:37;13.48;;;12.18;;
7693;SDS011;3889;48.162;11.510;2022-07-22T02:33:05;13.45;;;12.18;;
7693;SDS011;3889;48.162;11.510;2022-07-22T02:35:34;13.93;;;12.52;;
7693;SDS011;3889;48.162;11.510;2022-07-22T02:38:02;13.90;;;12.52;;
7693;SDS011;3889;48.162;11.510;2022-07-22T02:40:30;14.77;;;13.27;;
7693;SDS011;3889;48.162;11.510;2022-07-22T02:42:58;13.30;;;12.00;;
7693;SDS011;3889;48.162;11.510;2022-07-22T02:45:26;13.30;;;12.00;;
7693;SDS011;3889;48.162;11.510;2022-07-22T02:47:56;14.43;;;13.05;;
7693;SDS011;3889;48.162;11.510;2022-07-22T02:50:24;13.93;;;12.63;;
7693;SDS011;3889;48.162;11.510;2022-07-22T02:52:53;14.00;;;12.60;;
7693;SDS011;3889;48.162;11.510;2022-07-22T02:55:21;13.88;;;12.57;;
7693;SDS011;3889;48.162;11.510;2022-07-22T02:57:48;14.17;;;12.83;;
7693;SDS011;3889;48.162;11.510;2022-07-22T03:00:16;14.43;;;13.03;;
7693;SDS011;3889;48.162;11.510;2022-07-22T03:02:46;13.93;;;12.52;;
7693;SDS011;3889;48.162;11.510;2022-07-22T03:05:15;13.45;;;12.25;;
7693;SDS011;3889;48.162;11.510;2022-07-22T03:07:43;14.25;;;12.73;;
7693;SDS011;3889;48.162;11.510;2022-07-22T03:10:11;14.57;;;13.23;;
7693;SDS011;3889;48.162;11.510;2022-07-22T03:12:39;13.50;;;12.20;;
7693;SDS011;3889;48.162;11.510;2022-07-22T03:15:07;14.27;;;12.93;;
7693;SDS011;3889;48.162;11.510;2022-07-22T03:17:36;15.00;;;13.43;;
7693;SDS011;3889;48.162;11.510;2022-07-22T03:20:05;14.75;;;13.25;;
7693;SDS011;3889;48.162;11.510;2022-07-22T03:22:37;15.23;;;13.27;;
7693;SDS011;3889;48.162;11.510;2022-07-22T03:25:05;13.57;;;12.30;;
7693;SDS011;3889;48.162;11.510;2022-07-22T03:27:34;14.07;;;12.75;;
7693;SDS011;3889;48.162;11.510;2022-07-22T03:30:02;13.30;;;11.98;;
7693;SDS011;3889;48.162;11.510;2022-07-22T03:32:30;14.05;;;12.68;;
7693;SDS011;3889;48.162;11.510;2022-07-22T03:34:58;14.17;;;12.77;;
7693;SDS011;3889;48.162;11.510;2022-07-22T03:37:30;14.07;;;12.68;;
7693;SDS011;3889;48.162;11.510;2022-07-22T03:39:59;14.18;;;12.77;;
7693;SDS011;3889;48.162;11.510;2022-07-22T03:42:27;13.45;;;12.15;;
7693;SDS011;3889;48.162;11.510;2022-07-22T03:44:55;13.80;;;12.50;;
7693;SDS011;3889;48.162;11.510;2022-07-22T03:47:23;14.43;;;13.02;;
7693;SDS011;3889;48.162;11.510;2022-07-22T03:49:51;13.68;;;12.43;;
7693;SDS011;3889;48.162;11.510;2022-07-22T03:52:19;13.73;;;12.43;;
7693;SDS011;3889;48.162;11.510;2022-07-22T03:54:47;13.90;;;12.50;;
7693;SDS011;3889;48.162;11.510;2022-07-22T03:57:17;13.07;;;11.77;;
7693;SDS011;3889;48.162;11.510;2022-07-22T03:59:45;13.82;;;12.52;;
7693;SDS011;3889;48.162;11.510;2022-07-22T04:02:14;13.00;;;11.80;;
7693;SDS011;3889;48.162;11.510;2022-07-22T04:04:42;13.48;;;12.18;;
7693;SDS011;3889;48.162;11.510;2022-07-22T04:07:10;14.50;;;13.13;;
7693;SDS011;3889;48.162;11.510;2022-07-22T04:09:38;14.73;;;13.27;;
7693;SDS011;3889;48.162;11.510;2022-07-22T04:12:06;15.07;;;12.63;;
7693;SDS011;3889;48.162;11.510;2022-07-22T04:14:35;14.57;;;13.23;;
7693;SDS011;3889;48.162;11.510;2022-07-22T04:17:03;14.65;;;13.25;;
7693;SDS011;3889;48.162;11.510;2022-07-22T04:19:33;15.43;;;14.03;;
7693;SDS011;3889;48.162;11.510;2022-07-22T04:22:00;15.30;;;13.77;;
7693;SDS011;3889;48.162;11.510;2022-07-22T04:24:30;16.13;;;14.43;;
7693;SDS011;3889;48.162;11.510;2022-07-22T04:26:58;15.57;;;14.10;;
7693;SDS011;3889;48.162;11.510;2022-07-22T04:29:26;15.57;;;14.07;;
7693;SDS011;3889;48.162;11.510;2022-07-22T04:31:55;16.25;;;13.90;;
7693;SDS011;3889;48.162;11.510;2022-07-22T04:34:28;15.93;;;14.30;;
7693;SDS011;3889;48.162;11.510;2022-07-22T04:36:56;15.38;;;13.88;;
7693;SDS011;3889;48.162;11.510;2022-07-22T04:39:24;15.57;;;14.07;;
7693;SDS011;3889;48.162;11.510;2022-07-22T04:41:52;16.38;;;14.77;;
7693;SDS011;3889;48.162;11.510;2022-07-22T04:44:19;16.27;;;14.77;;
7693;SDS011;3889;48.162;11.510;2022-07-22T04:46:48;15.88;;;13.98;;
7693;SDS011;3889;48.162;11.510;2022-07-22T04:49:17;16.13;;;14.52;;
7693;SDS011;3889;48.162;11.510;2022-07-22T04:51:45;15.07;;;13.63;;
7693;SDS011;3889;48.162;11.510;2022-07-22T04:54:13;15.98;;;14.38;;
7693;SDS011;3889;48.162;11.510;2022-07-22T04:56:41;14.82;;;13.40;;
7693;SDS011;3889;48.162;11.510;2022-07-22T04:59:09;15.43;;;13.83;;
7693;SDS011;3889;48.162;11.510;2022-07-22T05:01:37;15.30;;;13.10;;
7693;SDS011;3889;48.162;11.510;2022-07-22T05:04:05;16.15;;;14.55;;
7693;SDS011;3889;48.162;11.510;2022-07-22T05:06:35;17.20;;;15.25;;
7693;SDS011;3889;48.162;11.510;2022-07-22T05:09:03;15.93;;;14.30;;
7693;SDS011;3889;48.162;11.510;2022-07-22T05:11:30;15.13;;;13.60;;
7693;SDS011;3889;48.162;11.510;2022-07-22T05:13:59;15.18;;;13.68;;
7693;SDS011;3889;48.162;11.510;2022-07-22T05:16:26;15.40;;;13.95;;
7693;SDS011;3889;48.162;11.510;2022-07-22T05:18:54;15.00;;;13.57;;
7693;SDS011;3889;48.162;11.510;2022-07-22T05:21:23;15.77;;;14.25;;
7693;SDS011;3889;48.162;11.510;2022-07-22T05:23:52;15.23;;;13.63;;
7693;SDS011;3889;48.162;11.510;2022-07-22T05:26:20;15.93;;;14.27;;
7693;SDS011;3889;48.162;11.510;2022-07-22T05:28:51;15.65;;;14.15;;
7693;SDS011;3889;48.162;11.510;2022-07-22T05:31:20;15.20;;;13.70;;
7693;SDS011;3889;48.162;11.510;2022-07-22T05:33:48;15.35;;;13.85;;
7693;SDS011;3889;48.162;11.510;2022-07-22T05:36:16;15.23;;;13.60;;
7693;SDS011;3889;48.162;11.510;2022-07-22T05:38:44;15.17;;;13.67;;
7693;SDS011;3889;48.162;11.510;2022-07-22T05:41:13;15.93;;;14.38;;
7693;SDS011;3889;48.162;11.510;2022-07-22T05:43:41;16.02;;;14.43;;
7693;SDS011;3889;48.162;11.510;2022-07-22T05:46:09;15.57;;;14.07;;
7693;SDS011;3889;48.162;11.510;2022-07-22T05:48:37;15.52;;;13.90;;
7693;SDS011;3889;48.162;11.510;2022-07-22T05:51:09;16.20;;;14.60;;
7693;SDS011;3889;48.162;11.510;2022-07-22T05:53:38;15.45;;;13.82;;
7693;SDS011;3889;48.162;11.510;2022-07-22T05:56:06;15.38;;;13.50;;
7693;SDS011;3889;48.162;11.510;2022-07-22T05:58:36;14.63;;;13.10;;
7693;SDS011;3889;48.162;11.510;2022-07-22T06:01:04;14.57;;;13.10;;
7693;SDS011;3889;48.162;11.510;2022-07-22T06:03:33;14.98;;;13.48;;
7693;SDS011;3889;48.162;11.510;2022-07-22T06:06:01;15.38;;;13.52;;
7693;SDS011;3889;48.162;11.510;2022-07-22T06:08:31;13.90;;;12.43;;
7693;SDS011;3889;48.162;11.510;2022-07-22T06:10:59;14.68;;;12.93;;
7693;SDS011;3889;48.162;11.510;2022-07-22T06:13:27;13.40;;;12.10;;
7693;SDS011;3889;48.162;11.510;2022-07-22T06:15:56;13.97;;;12.40;;
7693;SDS011;3889;48.162;11.510;2022-07-22T06:18:24;13.20;;;11.80;;
7693;SDS011;3889;48.162;11.510;2022-07-22T06:20:52;12.48;;;11.27;;
7693;SDS011;3889;48.162;11.510;2022-07-22T06:23:21;14.35;;;12.98;;
7693;SDS011;3889;48.162;11.510;2022-07-22T06:25:50;14.15;;;12.48;;
7693;SDS011;3889;48.162;11.510;2022-07-22T06:28:18;13.88;;;12.45;;
7693;SDS011;3889;48.162;11.510;2022-07-22T06:30:46;14.80;;;13.17;;
7693;SDS011;3889;48.162;11.510;2022-07-22T06:33:15;13.98;;;12.55;;
7693;SDS011;3889;48.162;11.510;2022-07-22T06:35:43;14.03;;;12.00;;
7693;SDS011;3889;48.162;11.510;2022-07-22T06:38:12;14.35;;;12.95;;
7693;SDS011;3889;48.162;11.510;2022-07-22T06:40:55;13.85;;;12.32;;
7693;SDS011;3889;48.162;11.510;2022-07-22T06:43:23;13.95;;;12.45;;
7693;SDS011;3889;48.162;11.510;2022-07-22T06:45:51;14.48;;;12.98;;
7693;SDS011;3889;48.162;11.510;2022-07-22T06:48:20;13.88;;;12.38;;
7693;SDS011;3889;48.162;11.510;2022-07-22T06:50:48;14.25;;;12.45;;
7693;SDS011;3889;48.162;11.510;2022-07-22T06:53:19;15.88;;;12.63;;
7693;SDS011;3889;48.162;11.510;2022-07-22T06:55:47;14.13;;;12.68;;
7693;SDS011;3889;48.162;11.510;2022-07-22T06:58:15;13.50;;;12.10;;
7693;SDS011;3889;48.162;11.510;2022-07-22T07:00:43;14.05;;;12.05;;
7693;SDS011;3889;48.162;11.510;2022-07-22T07:03:11;15.60;;;12.05;;
7693;SDS011;3889;48.162;11.510;2022-07-22T07:06:00;12.67;;;11.37;;
7693;SDS011;3889;48.162;11.510;2022-07-22T07:08:29;13.73;;;12.33;;
7693;SDS011;3889;48.162;11.510;2022-07-22T07:10:57;12.93;;;11.63;;
7693;SDS011;3889;48.162;11.510;2022-07-22T07:13:25;14.23;;;12.32;;
7693;SDS011;3889;48.162;11.510;2022-07-22T07:15:53;13.65;;;12.25;;
7693;SDS011;3889;48.162;11.510;2022-07-22T07:18:21;13.68;;;12.27;;
7693;SDS011;3889;48.162;11.510;2022-07-22T07:20:49;12.18;;;10.98;;
7693;SDS011;3889;48.162;11.510;2022-07-22T07:23:18;12.48;;;11.18;;
7693;SDS011;3889;48.162;11.510;2022-07-22T07:25:47;13.27;;;11.13;;
7693;SDS011;3889;48.162;11.510;2022-07-22T07:28:15;13.07;;;10.88;;
7693;SDS011;3889;48.162;11.510;2022-07-22T07:30:45;12.27;;;10.40;;
7693;SDS011;3889;48.162;11.510;2022-07-22T07:33:13;12.88;;;10.95;;
7693;SDS011;3889;48.162;11.510;2022-07-22T07:35:41;13.55;;;11.02;;
7693;SDS011;3889;48.162;11.510;2022-07-22T07:38:09;11.93;;;10.65;;
7693;SDS011;3889;48.162;11.510;2022-07-22T07:40:39;11.65;;;10.02;;
7693;SDS011;3889;48.162;11.510;2022-07-22T07:43:07;12.07;;;9.50;;
7693;SDS011;3889;48.162;11.510;2022-07-22T07:45:35;10.88;;;9.70;;
7693;SDS011;3889;48.162;11.510;2022-07-22T07:48:03;11.50;;;9.93;;
7693;SDS011;3889;48.162;11.510;2022-07-22T07:50:31;11.32;;;9.65;;
7693;SDS011;3889;48.162;11.510;2022-07-22T07:53:00;9.40;;;8.40;;
7693;SDS011;3889;48.162;11.510;2022-07-22T07:55:27;9.63;;;8.57;;
7693;SDS011;3889;48.162;11.510;2022-07-22T07:57:57;9.80;;;8.80;;
7693;SDS011;3889;48.162;11.510;2022-07-22T08:00:26;12.57;;;8.63;;
7693;SDS011;3889;48.162;11.510;2022-07-22T08:02:55;10.35;;;8.63;;
7693;SDS011;3889;48.162;11.510;2022-07-22T08:05:25;17.55;;;13.00;;
7693;SDS011;3889;48.162;11.510;2022-07-22T08:07:54;12.80;;;10.98;;
7693;SDS011;3889;48.162;11.510;2022-07-22T08:10:23;9.93;;;8.48;;
7693;SDS011;3889;48.162;11.510;2022-07-22T08:13:14;10.32;;;8.63;;
7693;SDS011;3889;48.162;11.510;2022-07-22T08:15:43;10.95;;;8.80;;
7693;SDS011;3889;48.162;11.510;2022-07-22T08:18:12;9.85;;;8.15;;
7693;SDS011;3889;48.162;11.510;2022-07-22T08:20:40;9.37;;;8.37;;
7693;SDS011;3889;48.162;11.510;2022-07-22T08:23:08;8.93;;;7.65;;
7693;SDS011;3889;48.162;11.510;2022-07-22T08:25:36;9.30;;;8.40;;
7693;SDS011;3889;48.162;11.510;2022-07-22T08:28:04;9.73;;;8.43;;
7693;SDS011;3889;48.162;11.510;2022-07-22T08:30:33;8.73;;;7.93;;
7693;SDS011;3889;48.162;11.510;2022-07-22T08:33:01;9.30;;;7.55;;
7693;SDS011;3889;48.162;11.510;2022-07-22T08:35:29;8.70;;;7.63;;
7693;SDS011;3889;48.162;11.510;2022-07-22T08:37:57;9.65;;;8.10;;
7693;SDS011;3889;48.162;11.510;2022-07-22T08:40:25;9.55;;;8.48;;
7693;SDS011;3889;48.162;11.510;2022-07-22T08:42:54;9.23;;;8.13;;
7693;SDS011;3889;48.162;11.510;2022-07-22T08:45:23;9.10;;;7.87;;
7693;SDS011;3889;48.162;11.510;2022-07-22T08:47:52;10.93;;;7.50;;
7693;SDS011;3889;48.162;11.510;2022-07-22T08:50:20;10.60;;;8.48;;
7693;SDS011;3889;48.162;11.510;2022-07-22T08:52:48;9.75;;;8.80;;
7693;SDS011;3889;48.162;11.510;2022-07-22T08:55:16;9.13;;;8.00;;
7693;SDS011;3889;48.162;11.510;2022-07-22T08:57:44;8.85;;;8.00;;
7693;SDS011;3889;48.162;11.510;2022-07-22T09:00:13;9.25;;;8.00;;
7693;SDS011;3889;48.162;11.510;2022-07-22T09:02:43;9.52;;;7.78;;
7693;SDS011;3889;48.162;11.510;2022-07-22T09:05:14;9.17;;;7.93;;
7693;SDS011;3889;48.162;11.510;2022-07-22T09:08:03;8.65;;;7.65;;
7693;SDS011;3889;48.162;11.510;2022-07-22T09:10:31;10.35;;;8.05;;
7693;SDS011;3889;48.162;11.510;2022-07-22T09:13:02;8.85;;;8.05;;
7693;SDS011;3889;48.162;11.510;2022-07-22T09:15:32;10.02;;;8.68;;
7693;SDS011;3889;48.162;11.510;2022-07-22T09:18:02;8.67;;;7.83;;
7693;SDS011;3889;48.162;11.510;2022-07-22T09:20:35;8.70;;;7.50;;
7693;SDS011;3889;48.162;11.510;2022-07-22T09:23:08;9.00;;;7.82;;
7693;SDS011;3889;48.162;11.510;2022-07-22T09:25:37;22.80;;;16.13;;
7693;SDS011;3889;48.162;11.510;2022-07-22T09:28:10;9.02;;;8.10;;
7693;SDS011;3889;48.162;11.510;2022-07-22T09:30:45;9.25;;;7.75;;
7693;SDS011;3889;48.162;11.510;2022-07-22T09:33:15;8.30;;;6.93;;
7693;SDS011;3889;48.162;11.510;2022-07-22T09:35:46;8.15;;;7.35;;
7693;SDS011;3889;48.162;11.510;2022-07-22T09:38:17;9.30;;;7.45;;
7693;SDS011;3889;48.162;11.510;2022-07-22T09:40:46;7.70;;;6.80;;
7693;SDS011;3889;48.162;11.510;2022-07-22T09:43:15;9.33;;;6.67;;
7693;SDS011;3889;48.162;11.510;2022-07-22T09:45:47;8.05;;;7.20;;
7693;SDS011;3889;48.162;11.510;2022-07-22T09:48:17;7.15;;;6.45;;
7693;SDS011;3889;48.162;11.510;2022-07-22T09:50:50;7.90;;;6.82;;
7693;SDS011;3889;48.162;11.510;2022-07-22T09:53:20;10.98;;;7.45;;
7693;SDS011;3889;48.162;11.510;2022-07-22T09:55:49;8.43;;;6.57;;
7693;SDS011;3889;48.162;11.510;2022-07-22T09:58:17;8.18;;;6.63;;
7693;SDS011;3889;48.162;11.510;2022-07-22T10:00:45;8.93;;;7.15;;
7693;SDS011;3889;48.162;11.510;2022-07-22T10:03:17;7.53;;;6.70;;
7693;SDS011;3889;48.162;11.510;2022-07-22T10:05:46;7.43;;;6.60;;
7693;SDS011;3889;48.162;11.510;2022-07-22T10:08:16;6.38;;;5.70;;
7693;SDS011;3889;48.162;11.510;2022-07-22T10:10:44;7.15;;;6.45;;
7693;SDS011;3889;48.162;11.510;2022-07-22T10:13:12;7.35;;;6.55;;
7693;SDS011;3889;48.162;11.510;2022-07-22T10:15:40;6.88;;;6.20;;
7693;SDS011;3889;48.162;11.510;2022-07-22T10:18:15;7.88;;;6.70;;
7693;SDS011;3889;48.162;11.510;2022-07-22T10:20:45;7.32;;;6.63;;
7693;SDS011;3889;48.162;11.510;2022-07-22T10:23:15;8.48;;;6.82;;
7693;SDS011;3889;48.162;11.510;2022-07-22T10:25:50;8.88;;;7.05;;
7693;SDS011;3889;48.162;11.510;2022-07-22T10:28:23;9.10;;;7.03;;
7693;SDS011;3889;48.162;11.510;2022-07-22T10:30:52;7.78;;;6.53;;
7693;SDS011;3889;48.162;11.510;2022-07-22T10:33:21;8.27;;;6.88;;
7693;SDS011;3889;48.162;11.510;2022-07-22T10:35:57;8.93;;;6.82;;
7693;SDS011;3889;48.162;11.510;2022-07-22T10:38:28;8.35;;;6.43;;
7693;SDS011;3889;48.162;11.510;2022-07-22T10:40:58;7.55;;;6.60;;
7693;SDS011;3889;48.162;11.510;2022-07-22T10:43:27;7.20;;;6.50;;
7693;SDS011;3889;48.162;11.510;2022-07-22T10:45:57;7.07;;;6.38;;
7693;SDS011;3889;48.162;11.510;2022-07-22T10:48:43;8.32;;;7.05;;
7693;SDS011;3889;48.162;11.510;2022-07-22T10:51:14;8.68;;;6.80;;
7693;SDS011;3889;48.162;11.510;2022-07-22T10:53:51;7.80;;;7.00;;
7693;SDS011;3889;48.162;11.510;2022-07-22T10:56:22;7.03;;;6.32;;
7693;SDS011;3889;48.162;11.510;2022-07-22T10:58:54;7.35;;;6.60;;
7693;SDS011;3889;48.162;11.510;2022-07-22T11:01:37;7.23;;;6.50;;
7693;SDS011;3889;48.162;11.510;2022-07-22T11:04:07;8.05;;;6.90;;
7693;SDS011;3889;48.162;11.510;2022-07-22T11:06:43;8.77;;;6.90;;
7693;SDS011;3889;48.162;11.510;2022-07-22T11:09:13;7.30;;;6.60;;
7693;SDS011;3889;48.162;11.510;2022-07-22T11:11:45;7.28;;;6.55;;
7693;SDS011;3889;48.162;11.510;2022-07-22T11:14:21;7.85;;;7.03;;
7693;SDS011;3889;48.162;11.510;2022-07-22T11:16:53;7.00;;;6.30;;
7693;SDS011;3889;48.162;11.510;2022-07-22T11:19:23;7.75;;;6.95;;
7693;SDS011;3889;48.162;11.510;2022-07-22T11:21:52;10.23;;;7.13;;
7693;SDS011;3889;48.162;11.510;2022-07-22T11:24:23;7.83;;;7.03;;
7693;SDS011;3889;48.162;11.510;2022-07-22T11:26:53;8.88;;;6.93;;
7693;SDS011;3889;48.162;11.510;2022-07-22T11:29:30;7.57;;;6.53;;
7693;SDS011;3889;48.162;11.510;2022-07-22T11:32:01;7.20;;;6.25;;
7693;SDS011;3889;48.162;11.510;2022-07-22T11:34:30;7.15;;;6.35;;
7693;SDS011;3889;48.162;11.510;2022-07-22T11:36:58;6.95;;;6.30;;
7693;SDS011;3889;48.162;11.510;2022-07-22T11:39:28;7.03;;;6.32;;
7693;SDS011;3889;48.162;11.510;2022-07-22T11:41:58;6.87;;;6.17;;
7693;SDS011;3889;48.162;11.510;2022-07-22T11:44:29;7.78;;;6.53;;
7693;SDS011;3889;48.162;11.510;2022-07-22T11:46:59;7.63;;;6.80;;
7693;SDS011;3889;48.162;11.510;2022-07-22T11:49:28;7.50;;;6.80;;
7693;SDS011;3889;48.162;11.510;2022-07-22T11:51:57;9.77;;;6.55;;
7693;SDS011;3889;48.162;11.510;2022-07-22T11:54:25;7.32;;;6.28;;
7693;SDS011;3889;48.162;11.510;2022-07-22T11:56:55;7.85;;;7.05;;
7693;SDS011;3889;48.162;11.510;2022-07-22T11:59:23;7.20;;;6.15;;
7693;SDS011;3889;48.162;11.510;2022-07-22T12:01:51;7.22;;;6.53;;
7693;SDS011;3889;48.162;11.510;2022-07-22T12:04:21;8.27;;;6.70;;
7693;SDS011;3889;48.162;11.510;2022-07-22T12:06:50;7.68;;;6.03;;
7693;SDS011;3889;48.162;11.510;2022-07-22T12:09:21;7.00;;;6.40;;
7693;SDS011;3889;48.162;11.510;2022-07-22T12:11:52;7.18;;;6.03;;
7693;SDS011;3889;48.162;11.510;2022-07-22T12:14:25;7.05;;;6.30;;
7693;SDS011;3889;48.162;11.510;2022-07-22T12:16:55;7.87;;;6.67;;
7693;SDS011;3889;48.162;11.510;2022-07-22T12:19:25;7.57;;;6.27;;
7693;SDS011;3889;48.162;11.510;2022-07-22T12:21:56;7.15;;;6.45;;
7693;SDS011;3889;48.162;11.510;2022-07-22T12:24:27;7.43;;;6.45;;
7693;SDS011;3889;48.162;11.510;2022-07-22T12:26:59;6.60;;;5.75;;
7693;SDS011;3889;48.162;11.510;2022-07-22T12:29:28;7.22;;;6.53;;
7693;SDS011;3889;48.162;11.510;2022-07-22T12:31:59;7.40;;;6.68;;
7693;SDS011;3889;48.162;11.510;2022-07-22T12:34:33;7.55;;;6.72;;
7693;SDS011;3889;48.162;11.510;2022-07-22T12:37:13;7.05;;;6.35;;
7693;SDS011;3889;48.162;11.510;2022-07-22T12:39:52;7.40;;;6.70;;
7693;SDS011;3889;48.162;11.510;2022-07-22T12:42:22;8.97;;;6.20;;
7693;SDS011;3889;48.162;11.510;2022-07-22T12:44:52;7.87;;;6.27;;
7693;SDS011;3889;48.162;11.510;2022-07-22T12:47:39;6.82;;;6.10;;
7693;SDS011;3889;48.162;11.510;2022-07-22T12:50:18;8.63;;;7.50;;
7693;SDS011;3889;48.162;11.510;2022-07-22T12:52:51;7.70;;;7.00;;
7693;SDS011;3889;48.162;11.510;2022-07-22T12:55:41;6.90;;;6.20;;
7693;SDS011;3889;48.162;11.510;2022-07-22T12:58:12;7.43;;;6.00;;
7693;SDS011;3889;48.162;11.510;2022-07-22T13:00:43;7.30;;;6.35;;
7693;SDS011;3889;48.162;11.510;2022-07-22T13:03:13;6.50;;;5.75;;
7693;SDS011;3889;48.162;11.510;2022-07-22T13:05:41;6.93;;;6.22;;
7693;SDS011;3889;48.162;11.510;2022-07-22T13:08:09;8.13;;;6.20;;
7693;SDS011;3889;48.162;11.510;2022-07-22T13:10:38;7.07;;;6.38;;
7693;SDS011;3889;48.162;11.510;2022-07-22T13:13:07;7.53;;;6.82;;
7693;SDS011;3889;48.162;11.510;2022-07-22T13:15:37;9.30;;;7.30;;
7693;SDS011;3889;48.162;11.510;2022-07-22T13:18:05;7.97;;;6.40;;
7693;SDS011;3889;48.162;11.510;2022-07-22T13:20:34;8.37;;;6.93;;
7693;SDS011;3889;48.162;11.510;2022-07-22T13:23:01;7.30;;;6.60;;
7693;SDS011;3889;48.162;11.510;2022-07-22T13:25:30;7.35;;;6.65;;
7693;SDS011;3889;48.162;11.510;2022-07-22T13:27:59;7.57;;;6.72;;
7693;SDS011;3889;48.162;11.510;2022-07-22T13:30:27;7.40;;;6.70;;
7693;SDS011;3889;48.162;11.510;2022-07-22T13:32:56;7.53;;;6.60;;
7693;SDS011;3889;48.162;11.510;2022-07-22T13:35:24;7.73;;;6.53;;
7693;SDS011;3889;48.162;11.510;2022-07-22T13:37:52;8.77;;;6.65;;
7693;SDS011;3889;48.162;11.510;2022-07-22T13:40:20;8.80;;;6.93;;
7693;SDS011;3889;48.162;11.510;2022-07-22T13:42:47;8.52;;;6.80;;
7693;SDS011;3889;48.162;11.510;2022-07-22T13:45:15;9.30;;;7.00;;
7693;SDS011;3889;48.162;11.510;2022-07-22T13:47:43;7.93;;;6.72;;
7693;SDS011;3889;48.162;11.510;2022-07-22T13:50:12;8.00;;;6.50;;
7693;SDS011;3889;48.162;11.510;2022-07-22T13:52:40;8.70;;;6.90;;
7693;SDS011;3889;48.162;11.510;2022-07-22T13:55:12;8.32;;;6.63;;
7693;SDS011;3889;48.162;11.510;2022-07-22T13:57:41;7.00;;;6.30;;
7693;SDS011;3889;48.162;11.510;2022-07-22T14:00:09;7.20;;;6.50;;
7693;SDS011;3889;48.162;11.510;2022-07-22T14:02:40;9.02;;;7.03;;
7693;SDS011;3889;48.162;11.510;2022-07-22T14:05:10;7.47;;;6.72;;
7693;SDS011;3889;48.162;11.510;2022-07-22T14:07:41;7.63;;;6.72;;
7693;SDS011;3889;48.162;11.510;2022-07-22T14:10:09;7.87;;;6.33;;
7693;SDS011;3889;48.162;11.510;2022-07-22T14:12:37;8.10;;;7.22;;
7693;SDS011;3889;48.162;11.510;2022-07-22T14:15:05;7.25;;;6.50;;
7693;SDS011;3889;48.162;11.510;2022-07-22T14:17:34;8.77;;;7.47;;
7693;SDS011;3889;48.162;11.510;2022-07-22T14:20:03;9.50;;;6.95;;
7693;SDS011;3889;48.162;11.510;2022-07-22T14:22:35;8.07;;;6.50;;
7693;SDS011;3889;48.162;11.510;2022-07-22T14:25:03;6.97;;;6.25;;
7693;SDS011;3889;48.162;11.510;2022-07-22T14:27:31;7.68;;;6.97;;
7693;SDS011;3889;48.162;11.510;2022-07-22T14:29:59;7.60;;;6.90;;
7693;SDS011;3889;48.162;11.510;2022-07-22T14:32:27;6.93;;;6.23;;
7693;SDS011;3889;48.162;11.510;2022-07-22T14:34:55;7.80;;;7.00;;
7693;SDS011;3889;48.162;11.510;2022-07-22T14:37:23;7.50;;;6.80;;
7693;SDS011;3889;48.162;11.510;2022-07-22T14:39:54;7.70;;;7.00;;
7693;SDS011;3889;48.162;11.510;2022-07-22T14:42:22;8.30;;;6.82;;
7693;SDS011;3889;48.162;11.510;2022-07-22T14:44:50;7.45;;;6.50;;
7693;SDS011;3889;48.162;11.510;2022-07-22T14:47:18;11.52;;;8.70;;
7693;SDS011;3889;48.162;11.510;2022-07-22T14:49:46;8.13;;;7.03;;
7693;SDS011;3889;48.162;11.510;2022-07-22T14:52:13;7.63;;;6.60;;
7693;SDS011;3889;48.162;11.510;2022-07-22T14:54:41;7.68;;;6.70;;
7693;SDS011;3889;48.162;11.510;2022-07-22T14:57:10;6.90;;;6.20;;
7693;SDS011;3889;48.162;11.510;2022-07-22T14:59:39;7.53;;;6.80;;
7693;SDS011;3889;48.162;11.510;2022-07-22T15:02:06;9.95;;;7.30;;